Time;durP1;ratioP1;P1;durP2;ratioP2;P2;SDS_P1;SDS_P2;PMS_P1;PMS_P2;Temp;Humidity;BMP_temperature;BMP_pressure;BME280_temperature;BME280_humidity;BME280_pressure;Samples;Min_cycle;Max_cycle;Signal;HPM_P1;HPM_P2
2021/06/29 00:00:56;;;;;;;6.10;5.50;;;20.00;99.90;;;20.24;95.81;97925.25;5116853;27;24554;-66
2021/06/29 00:03:55;;;;;;;6.47;5.87;;;20.00;99.90;;;20.20;95.77;97906.22;5193712;27;24963;-66
2021/06/29 00:06:54;;;;;;;6.00;5.40;;;19.90;99.90;;;20.23;97.69;97907.69;5195539;27;24574;-66
2021/06/29 00:09:53;;;;;;;9.67;5.80;;;20.00;99.90;;;20.22;95.94;97916.63;5190519;27;24590;-66
2021/06/29 00:12:49;;;;;;;6.10;5.60;;;20.00;99.90;;;20.22;97.16;97919.28;5114134;27;25168;-65
2021/06/29 00:15:43;;;;;;;7.03;5.43;;;20.00;99.90;;;20.16;96.09;97919.94;5116514;27;24582;-65
2021/06/29 00:18:41;;;;;;;5.70;5.20;;;19.90;99.90;;;20.17;96.56;97935.69;5195971;27;24714;-66
2021/06/29 00:21:40;;;;;;;9.23;5.47;;;20.00;99.90;;;20.16;97.45;97946.44;5192714;27;24577;-65
2021/06/29 00:24:39;;;;;;;6.10;5.60;;;19.90;99.90;;;20.11;97.81;97935.53;5202352;27;24588;-66
2021/06/29 00:27:38;;;;;;;7.33;5.90;;;19.90;99.90;;;20.12;96.24;97942.50;5196369;27;24598;-65
2021/06/29 00:30:37;;;;;;;6.43;5.77;;;19.90;99.90;;;20.12;97.72;97935.38;5197191;27;24574;-65
2021/06/29 00:33:37;;;;;;;10.20;5.60;;;19.90;99.90;;;20.17;97.68;97933.03;5198345;27;24591;-65
2021/06/29 00:36:34;;;;;;;5.70;5.20;;;19.90;99.90;;;20.17;96.94;97940.16;5118002;27;24550;-66
2021/06/29 00:39:32;;;;;;;6.40;5.60;;;19.90;99.90;;;20.17;97.65;97950.75;5195817;27;24569;-66
2021/06/29 00:42:32;;;;;;;5.90;5.40;;;19.90;99.90;;;20.18;96.41;97963.03;5192684;27;25170;-65
2021/06/29 00:45:33;;;;;;;6.20;5.50;;;20.00;99.90;;;20.13;97.67;97957.38;5107008;27;25161;-65
2021/06/29 00:48:31;;;;;;;6.77;5.80;;;19.90;99.90;;;20.15;98.24;97968.66;5196917;27;24689;-65
2021/06/29 00:51:34;;;;;;;6.00;5.40;;;19.90;99.90;;;20.16;98.04;97975.59;5102605;27;24610;-66
2021/06/29 00:54:34;;;;;;;5.93;5.33;;;20.00;99.90;;;20.11;97.08;97981.38;5192952;27;25114;-65
2021/06/29 00:57:34;;;;;;;6.30;5.70;;;19.90;99.90;;;20.07;96.95;97989.81;5123641;27;24916;-66
2021/06/29 01:00:33;;;;;;;8.37;6.10;;;19.90;99.90;;;20.07;98.17;97989.81;5192999;27;24587;-65
2021/06/29 01:03:32;;;;;;;6.80;6.20;;;19.90;99.90;;;20.05;97.50;97994.47;5196062;27;25133;-66
2021/06/29 01:06:31;;;;;;;6.33;5.73;;;19.90;99.90;;;20.04;95.93;97992.78;5188757;27;24712;-66
2021/06/29 01:09:32;;;;;;;7.10;6.27;;;19.90;99.90;;;20.02;98.08;97989.50;5196834;27;24957;-65
2021/06/29 01:12:27;;;;;;;6.80;6.20;;;19.80;99.90;;;20.02;96.59;97989.50;5117526;27;25121;-65
2021/06/29 01:15:33;;;;;;;7.43;6.60;;;19.80;99.90;;;20.02;96.60;98000.09;5130725;27;24588;-65
2021/06/29 01:18:33;;;;;;;9.50;6.40;;;19.80;99.90;;;20.03;96.76;97991.16;5195964;27;24586;-65
2021/06/29 01:21:37;;;;;;;6.93;6.00;;;19.80;99.90;;;20.02;97.34;97992.16;5198711;27;25027;-66
2021/06/29 01:24:51;;;;;;;7.00;6.40;;;19.80;99.90;;;20.01;97.31;97983.38;5156054;27;24583;-66
2021/06/29 01:27:57;;;;;;;6.60;5.97;;;19.80;99.90;;;20.01;97.28;97975.44;5198307;27;25181;-66
2021/06/29 01:31:10;;;;;;;6.10;5.60;;;19.80;99.90;;;19.94;96.85;97978.91;5154759;27;24591;-65
2021/06/29 01:34:20;;;;;;;7.37;6.53;;;19.80;99.90;;;19.88;97.08;97977.72;5151967;27;24568;-65
2021/06/29 01:37:34;;;;;;;7.37;6.63;;;19.70;99.90;;;19.87;96.11;97965.50;5148737;27;25198;-66
2021/06/29 01:40:32;;;;;;;7.33;6.47;;;19.70;99.90;;;19.88;95.67;97953.09;5112137;27;24660;-66
2021/06/29 01:43:40;;;;;;;6.93;6.23;;;19.70;99.90;;;19.85;97.52;97959.50;5144456;27;24551;-66
2021/06/29 01:46:43;;;;;;;7.10;5.97;;;19.60;99.90;;;19.81;95.45;97954.69;5107227;27;25000;-66
2021/06/29 01:49:42;;;;;;;6.57;5.97;;;19.60;99.90;;;19.69;95.72;97956.00;5191015;27;24719;-65
2021/06/29 01:52:41;;;;;;;6.50;5.90;;;19.60;99.90;;;19.64;97.43;97941.63;5191295;27;24698;-66
2021/06/29 01:55:40;;;;;;;7.00;6.30;;;19.50;99.90;;;19.54;97.59;97946.25;5195257;27;24556;-66
2021/06/29 01:58:39;;;;;;;9.00;5.67;;;19.40;99.90;;;19.51;97.28;97946.56;5199207;27;24562;-65
2021/06/29 02:01:38;;;;;;;6.40;5.80;;;19.30;99.90;;;19.50;97.43;97939.59;5117924;27;24587;-66
2021/06/29 02:04:37;;;;;;;6.10;5.30;;;19.30;99.90;;;19.50;96.46;97945.75;5193290;27;24687;-65
2021/06/29 02:07:36;;;;;;;5.40;5.00;;;19.30;99.90;;;19.50;97.54;97940.44;5185252;27;24581;-65
2021/06/29 02:10:41;;;;;;;6.07;5.40;;;19.30;99.90;;;19.52;97.34;97949.03;5151088;27;24543;-65
2021/06/29 02:13:35;;;;;;;5.20;4.73;;;19.40;99.90;;;19.55;96.94;97937.31;5116195;27;24553;-66
2021/06/29 02:16:35;;;;;;;5.33;4.40;;;19.40;99.90;;;19.55;96.79;97935.50;5197931;27;24558;-66
2021/06/29 02:19:34;;;;;;;5.37;4.87;;;19.40;99.90;;;19.54;95.16;97940.94;5192352;27;24914;-65
2021/06/29 02:22:38;;;;;;;4.90;4.40;;;19.40;99.90;;;19.55;95.67;97943.44;5143818;27;24642;-65
2021/06/29 02:25:37;;;;;;;4.73;4.33;;;19.40;99.90;;;19.48;96.50;97945.09;5197986;27;24549;-65
2021/06/29 02:28:36;;;;;;;4.73;4.43;;;19.30;99.90;;;19.48;95.28;97942.44;5197286;27;25162;-65
2021/06/29 02:31:34;;;;;;;5.30;4.80;;;19.30;99.90;;;19.51;95.21;97957.16;5196346;27;25180;-65
2021/06/29 02:34:48;;;;;;;4.40;4.10;;;19.40;99.90;;;19.55;96.99;97984.94;5150075;27;24578;-65
2021/06/29 02:37:47;;;;;;;5.20;4.70;;;19.40;99.90;;;19.60;98.10;98004.63;5193896;27;24934;-66
2021/06/29 02:41:00;;;;;;;5.27;4.87;;;19.40;99.90;;;19.65;98.00;98031.47;5150764;27;24647;-66
2021/06/29 02:44:14;;;;;;;5.77;5.17;;;19.50;99.90;;;19.67;98.98;98045.34;5150456;27;24576;-66
2021/06/29 02:47:14;;;;;;;8.43;6.00;;;19.50;99.90;;;19.71;98.69;98043.19;5202106;27;24590;-66
2021/06/29 02:50:14;;;;;;;4.97;4.57;;;19.60;99.90;;;19.74;99.10;98034.94;5193207;27;24570;-66
2021/06/29 02:53:12;;;;;;;5.30;4.80;;;19.60;99.90;;;19.74;97.71;98043.72;5198167;27;24984;-65
2021/06/29 02:56:37;;;;;;;5.20;4.70;;;19.60;99.90;;;19.80;99.34;98047.53;5199734;27;24637;-65
2021/06/29 02:59:30;;;;;;;6.00;5.40;;;19.60;99.90;;;19.79;97.76;98030.81;5194039;27;24597;-65
2021/06/29 03:02:29;;;;;;;5.90;5.40;;;19.60;99.90;;;19.82;99.34;98029.69;5194169;27;24539;-66
2021/06/29 03:05:28;;;;;;;6.10;5.50;;;19.70;99.90;;;19.84;98.67;98020.56;5196214;27;24549;-65
2021/06/29 03:08:32;;;;;;;6.97;5.30;;;19.70;99.90;;;19.88;99.03;98011.34;5149720;27;25246;-65
2021/06/29 03:11:42;;;;;;;7.20;5.57;;;19.70;99.90;;;19.88;97.70;98008.69;5129186;27;24593;-65
2021/06/29 03:14:56;;;;;;;6.37;5.80;;;19.70;99.90;;;19.90;97.94;98006.69;5152829;27;25162;-66
2021/06/29 03:18:06;;;;;;;5.77;5.17;;;19.70;99.90;;;19.92;98.67;98015.28;5150193;27;25170;-65
2021/06/29 03:21:01;;;;;;;5.90;5.40;;;19.70;99.90;;;19.91;97.44;98009.19;5117988;27;24562;-66
2021/06/29 03:23:59;;;;;;;5.80;5.30;;;19.80;99.90;;;19.90;97.94;98002.22;5195804;27;24692;-65
2021/06/29 03:27:09;;;;;;;5.77;5.20;;;19.80;99.90;;;19.92;97.60;97999.41;5149394;27;24549;-65
2021/06/29 03:30:16;;;;;;;6.00;5.40;;;19.80;99.90;;;19.94;97.43;97997.44;5149371;27;24557;-66
2021/06/29 03:33:14;;;;;;;6.27;5.67;;;19.80;99.90;;;19.90;97.01;97991.63;5114270;27;24998;-66
2021/06/29 03:36:12;;;;;;;6.67;5.40;;;19.80;99.90;;;19.89;96.36;97978.56;5109766;27;25121;-65
2021/06/29 03:39:21;;;;;;;6.20;5.60;;;19.70;99.90;;;19.88;96.66;97987.50;5152443;27;24587;-65
2021/06/29 03:42:26;;;;;;;5.73;5.23;;;19.70;99.90;;;19.90;96.74;97980.22;5146618;27;24557;-66
2021/06/29 03:45:22;;;;;;;6.23;5.70;;;19.80;99.90;;;19.90;98.32;97973.09;5113077;27;24564;-65
2021/06/29 03:48:19;;;;;;;6.97;5.67;;;19.80;99.90;;;19.91;98.19;97968.66;5194491;27;24563;-66
2021/06/29 03:51:15;;;;;;;6.47;5.30;;;19.80;99.90;;;19.91;98.10;97968.66;5116622;27;24554;-65
2021/06/29 03:54:11;;;;;;;5.63;5.13;;;19.80;99.90;;;19.93;96.76;97956.06;5113945;27;25198;-65
2021/06/29 03:57:09;;;;;;;6.13;5.40;;;19.80;99.90;;;19.91;96.94;97952.75;5111404;27;25155;-65
2021/06/29 04:00:22;;;;;;;5.90;5.23;;;19.70;99.90;;;19.91;98.23;97934.22;5155277;27;24572;-65
2021/06/29 04:03:21;;;;;;;6.37;5.00;;;19.70;99.90;;;19.89;96.26;97921.16;5193837;27;24696;-66
2021/06/29 04:06:31;;;;;;;5.10;4.70;;;19.80;99.90;;;19.83;96.18;97913.03;5122336;27;24689;-65
2021/06/29 04:09:28;;;;;;;5.90;5.40;;;19.70;99.90;;;19.78;95.82;97906.56;5192003;27;24723;-66
2021/06/29 04:12:42;;;;;;;6.13;5.53;;;19.70;99.90;;;19.74;97.35;97931.69;5150368;27;25221;-65
2021/06/29 04:15:41;;;;;;;5.73;5.33;;;19.60;99.90;;;19.75;98.24;97928.88;5198125;27;24601;-65
2021/06/29 04:18:40;;;;;;;5.80;5.30;;;19.60;99.90;;;19.78;96.82;97943.63;5192536;27;24633;-65
2021/06/29 04:21:39;;;;;;;5.00;4.60;;;19.70;99.90;;;19.82;97.35;97944.97;5190638;27;24613;-65
2021/06/29 04:24:38;;;;;;;5.87;5.37;;;19.60;99.90;;;19.83;97.06;97957.19;5193452;27;24569;-66
2021/06/29 04:27:37;;;;;;;8.03;5.47;;;19.70;99.90;;;19.86;97.39;97942.66;5194223;27;24546;-66
2021/06/29 04:30:36;;;;;;;6.80;6.13;;;19.70;99.90;;;19.86;96.38;97936.56;5194656;27;24545;-65
2021/06/29 04:33:35;;;;;;;7.03;5.17;;;19.70;99.90;;;19.87;96.89;97933.75;5191357;27;26907;-65
2021/06/29 04:36:34;;;;;;;9.40;5.53;;;19.70;99.90;;;19.86;96.72;97934.72;5198260;27;24596;-66
2021/06/29 04:39:33;;;;;;;6.10;5.60;;;19.70;99.90;;;19.86;96.44;97918.84;5195031;27;24554;-65
2021/06/29 04:42:34;;;;;;;6.50;5.90;;;19.70;99.90;;;19.85;96.88;97908.38;5105587;27;24570;-65
2021/06/29 04:45:44;;;;;;;6.13;5.57;;;19.70;99.90;;;19.84;95.92;97906.72;5149536;27;24552;-65
2021/06/29 04:48:43;;;;;;;5.10;4.70;;;19.70;99.90;;;19.82;95.98;97881.41;5159708;27;24927;-65
2021/06/29 04:51:42;;;;;;;6.20;5.30;;;19.70;99.90;;;19.79;96.12;97866.69;5199050;27;24602;-65
2021/06/29 04:54:41;;;;;;;6.03;5.23;;;19.70;99.90;;;19.72;94.97;97841.03;5195023;27;24593;-66
2021/06/29 04:57:40;;;;;;;5.63;4.90;;;19.60;99.90;;;19.71;95.64;97808.47;5195818;27;24569;-66
2021/06/29 05:00:44;;;;;;;6.27;4.80;;;19.60;99.90;;;19.68;94.96;97794.72;5201214;27;24601;-66
2021/06/29 05:03:54;;;;;;;5.13;4.53;;;19.60;99.90;;;19.65;96.65;97766.78;5153051;27;24582;-65
2021/06/29 05:06:53;;;;;;;5.30;4.80;;;19.60;99.90;;;19.56;94.99;97743.97;5195421;27;24600;-66
2021/06/29 05:09:52;;;;;;;4.60;4.20;;;19.50;99.90;;;19.45;94.79;97709.09;5199121;27;24687;-65
2021/06/29 05:12:51;;;;;;;4.80;3.70;;;19.40;99.90;;;19.35;94.93;97744.66;5200177;27;24597;-65
2021/06/29 05:16:05;;;;;;;5.80;4.70;;;19.20;99.90;;;19.42;95.58;97862.88;5155469;27;24560;-67
2021/06/29 05:19:15;;;;;;;6.77;5.70;;;19.30;99.90;;;19.42;96.67;97900.75;5163208;27;24588;-66
2021/06/29 05:22:13;;;;;;;7.30;6.60;;;19.30;99.90;;;19.46;98.20;97891.47;5193284;27;24915;-66
2021/06/29 05:25:14;;;;;;;7.77;6.43;;;19.30;99.90;;;19.52;98.47;97897.94;5194207;27;24722;-66
2021/06/29 05:28:13;;;;;;;5.97;5.40;;;19.40;99.90;;;19.54;98.43;97872.97;5195797;27;24578;-65
2021/06/29 05:31:12;;;;;;;8.63;7.70;;;19.40;99.90;;;19.59;98.56;97907.72;5193962;27;24601;-65
2021/06/29 05:34:11;;;;;;;7.30;6.60;;;19.50;99.90;;;19.67;98.12;97915.66;5198790;27;24581;-66
2021/06/29 05:37:18;;;;;;;7.97;7.17;;;19.50;99.90;;;19.78;99.00;97910.03;5130996;27;24573;-65
2021/06/29 05:40:25;;;;;;;5.93;5.43;;;19.60;99.90;;;19.86;98.23;97932.06;5126551;27;24708;-66
2021/06/29 05:43:24;;;;;;;6.50;5.90;;;19.70;99.90;;;19.92;98.40;97918.16;5197539;27;24568;-65
2021/06/29 05:46:28;;;;;;;6.40;5.80;;;19.70;99.90;;;19.95;97.61;97901.94;5146713;27;25086;-66
2021/06/29 05:49:29;;;;;;;6.47;5.87;;;19.80;99.90;;;20.01;97.76;97889.84;5107270;27;24561;-66
2021/06/29 05:52:28;;;;;;;6.93;6.30;;;19.80;99.90;;;20.04;96.43;97881.56;5193962;27;24675;-65
2021/06/29 05:55:27;;;;;;;6.93;6.23;;;19.90;99.90;;;20.04;96.58;97876.28;5197214;27;24573;-65
2021/06/29 05:58:44;;;;;;;8.27;6.10;;;19.90;99.90;;;20.00;97.10;97859.09;5111657;27;24585;-65
2021/06/29 06:01:42;;;;;;;5.70;5.30;;;19.90;99.90;;;20.01;97.02;97848.31;5205963;27;25137;-66
2021/06/29 06:04:43;;;;;;;7.70;5.70;;;19.90;99.90;;;20.03;96.84;97840.22;5110884;27;25402;-66
2021/06/29 06:07:42;;;;;;;5.60;5.17;;;19.90;99.90;;;20.04;96.18;97825.94;5190319;27;24562;-66
2021/06/29 06:10:41;;;;;;;6.40;5.83;;;19.90;99.90;;;19.97;94.73;97832.94;5196327;27;25175;-66
2021/06/29 06:13:46;;;;;;;5.30;4.13;;;19.90;99.90;;;19.96;95.57;97831.28;5149670;27;24657;-66
2021/06/29 06:16:43;;;;;;;6.00;4.17;;;19.90;99.90;;;19.86;95.56;97831.47;5198234;27;24589;-66
2021/06/29 06:19:42;;;;;;;4.37;3.97;;;19.80;99.90;;;19.85;95.35;97834.25;5119646;27;24577;-65
2021/06/29 06:22:39;;;;;;;4.63;4.20;;;19.70;99.90;;;19.84;95.65;97843.16;5124288;27;24957;-67
2021/06/29 06:25:46;;;;;;;5.17;4.67;;;19.70;99.90;;;19.94;94.50;97849.16;5132380;27;24544;-66
2021/06/29 06:28:44;;;;;;;5.03;4.53;;;19.80;99.90;;;20.04;96.08;97845.34;5202069;27;25100;-66
2021/06/29 06:31:43;;;;;;;4.90;4.40;;;19.90;99.90;;;20.15;96.88;97846.81;5199163;27;24542;-66
2021/06/29 06:34:42;;;;;;;4.63;4.33;;;20.00;99.90;;;20.27;96.02;97858.69;5198368;27;24614;-66
2021/06/29 06:37:42;;;;;;;5.80;4.90;;;20.00;99.90;;;20.38;94.79;97848.53;5196519;27;25107;-67
2021/06/29 06:40:40;;;;;;;5.20;4.70;;;20.20;99.90;;;20.51;96.33;97851.47;5198971;27;24553;-66
2021/06/29 06:43:39;;;;;;;4.97;4.50;;;20.30;99.90;;;20.63;94.45;97842.97;5192165;27;24988;-66
2021/06/29 06:46:53;;;;;;;6.93;4.90;;;20.40;99.90;;;20.76;95.14;97837.13;5149909;27;24551;-67
2021/06/29 06:50:10;;;;;;;7.93;5.53;;;20.50;99.90;;;20.92;94.87;97843.19;5154167;27;24653;-67
2021/06/29 06:53:14;;;;;;;7.50;6.80;;;20.60;99.90;;;21.21;94.21;97843.34;5149074;27;25258;-68
2021/06/29 06:56:15;;;;;;;4.97;4.57;;;20.90;99.90;;;21.45;92.88;97834.22;5201398;27;25111;-67
2021/06/29 06:59:13;;;;;;;5.03;4.60;;;21.10;99.90;;;21.91;90.73;97833.16;5196877;27;24589;-67
2021/06/29 07:02:13;;;;;;;5.50;4.97;;;21.40;99.90;;;22.52;90.16;97839.81;5198092;27;24588;-67
2021/06/29 07:05:11;;;;;;;4.43;4.03;;;21.90;99.90;;;23.18;87.63;97852.91;5194917;27;24553;-67
2021/06/29 07:08:10;;;;;;;4.33;3.93;;;22.50;99.90;;;23.65;85.96;97846.91;5133710;27;25380;-68
2021/06/29 07:11:06;;;;;;;3.90;3.60;;;23.00;99.90;;;23.88;82.41;97837.66;5115022;27;24553;-67
2021/06/29 07:14:01;;;;;;;4.20;3.80;;;23.30;99.90;;;24.03;81.94;97832.25;5119280;27;24541;-68
2021/06/29 07:16:55;;;;;;;4.00;3.33;;;23.40;99.90;;;24.46;82.76;97843.44;5117902;27;24558;-68
2021/06/29 07:20:00;;;;;;;3.60;3.30;;;23.80;99.90;;;24.81;79.70;97845.84;5109355;27;24586;-68
2021/06/29 07:22:41;;;;;;;3.80;3.50;;;24.10;99.90;;;25.06;78.22;97860.34;5067732;27;20829;-66
2021/06/29 07:25:23;;;;;;;3.90;3.60;;;24.40;99.90;;;25.23;80.22;97859.81;5106785;27;21167;-69
2021/06/29 07:28:04;;;;;;;4.33;3.93;;;24.50;99.90;;;25.39;80.35;97853.25;5066218;27;20809;-67
2021/06/29 07:30:46;;;;;;;3.40;3.10;;;24.80;99.90;;;25.25;79.62;97856.94;5059231;28;20832;-68
2021/06/29 07:33:39;;;;;;;3.07;2.87;;;24.80;99.90;;;25.10;78.52;97848.25;5069828;28;21260;-68
2021/06/29 07:36:21;;;;;;;3.80;3.40;;;24.80;99.90;;;25.22;79.15;97852.00;5104061;27;20839;-67
2021/06/29 07:39:04;;;;;;;3.97;3.63;;;24.80;99.90;;;25.47;77.00;97839.69;5135096;27;20837;-68
2021/06/29 07:41:46;;;;;;;3.40;3.10;;;25.00;98.40;;;25.62;75.77;97839.31;5104016;27;20834;-67
2021/06/29 07:44:27;;;;;;;3.80;3.40;;;25.10;97.60;;;25.76;75.08;97842.88;5110207;27;20819;-67
2021/06/29 07:47:09;;;;;;;3.47;3.17;;;25.20;96.60;;;26.01;73.67;97839.38;5076248;27;20833;-68
2021/06/29 07:49:50;;;;;;;3.10;2.83;;;25.40;95.60;;;26.28;73.14;97841.84;5073031;27;20810;-67
2021/06/29 07:52:32;;;;;;;3.30;3.00;;;25.70;94.90;;;26.47;71.41;97840.97;5118281;27;21387;-68
2021/06/29 07:55:13;;;;;;;3.73;3.40;;;25.90;93.30;;;26.67;74.10;97839.06;5080664;27;20837;-67
2021/06/29 07:57:55;;;;;;;3.37;3.10;;;26.10;94.70;;;26.89;72.58;97833.25;5076411;27;20818;-66
2021/06/29 08:00:36;;;;;;;3.50;3.20;;;26.30;93.60;;;27.10;71.51;97833.75;5074874;27;20828;-68
2021/06/29 08:03:17;;;;;;;4.70;3.10;;;26.50;92.60;;;27.32;71.45;97831.56;5076592;27;20825;-67
2021/06/29 08:05:58;;;;;;;3.83;3.37;;;26.80;92.40;;;27.46;67.90;97822.44;5062228;28;21395;-67
2021/06/29 08:08:41;;;;;;;3.77;3.40;;;26.90;89.70;;;27.50;70.72;97819.16;5128781;27;20845;-67
2021/06/29 08:11:23;;;;;;;3.30;3.07;;;27.00;90.70;;;27.42;69.60;97810.50;5083270;27;21220;-67
2021/06/29 08:14:05;;;;;;;3.23;2.93;;;26.90;88.90;;;27.39;69.08;97811.75;5125249;27;20820;-67
2021/06/29 08:16:46;;;;;;;3.00;2.70;;;26.90;87.60;;;27.41;67.91;97807.00;5091613;27;20828;-67
2021/06/29 08:19:27;;;;;;;3.30;3.00;;;26.90;86.20;;;27.58;68.26;97808.16;5129333;27;20827;-67
2021/06/29 08:22:09;;;;;;;3.40;2.80;;;27.00;86.30;;;27.68;70.08;97803.94;5068857;27;21170;-66
2021/06/29 08:24:51;;;;;;;3.00;2.70;;;27.20;89.70;;;27.79;68.11;97802.44;5113512;27;20826;-67
2021/06/29 08:27:31;;;;;;;3.10;2.90;;;27.40;86.70;;;27.89;69.65;97800.91;5109946;27;20842;-67
2021/06/29 08:30:14;;;;;;;3.10;2.90;;;27.50;88.50;;;27.93;68.17;97798.59;5113989;27;20835;-66
2021/06/29 08:32:56;;;;;;;3.23;2.93;;;27.50;84.30;;;28.03;68.65;97805.09;5136292;27;20840;-67
2021/06/29 08:35:37;;;;;;;2.87;2.60;;;27.60;84.90;;;28.21;67.50;97807.84;5073439;27;21325;-67
2021/06/29 08:38:20;;;;;;;2.80;2.60;;;27.80;84.30;;;28.36;65.66;97802.94;5140086;27;20821;-67
2021/06/29 08:41:02;;;;;;;2.73;2.53;;;27.90;78.80;;;28.46;65.63;97792.50;5102686;27;20810;-67
2021/06/29 08:43:43;;;;;;;2.80;2.60;;;28.10;77.80;;;28.58;67.37;97788.84;5120444;27;20829;-67
2021/06/29 08:46:24;;;;;;;2.93;2.33;;;28.10;81.00;;;28.66;63.89;97799.31;5076209;27;20833;-67
2021/06/29 08:49:07;;;;;;;2.83;2.50;;;28.20;76.10;;;28.60;64.41;97792.16;5111369;27;20809;-67
2021/06/29 08:52:00;;;;;;;2.70;2.50;;;28.20;75.90;;;28.61;67.88;97781.19;5095746;27;21199;-67
2021/06/29 08:54:42;;;;;;;4.73;2.43;;;28.20;79.50;;;28.63;66.61;97783.63;5139758;27;20818;-67
2021/06/29 08:57:23;;;;;;;2.90;2.70;;;28.20;78.80;;;28.64;68.14;97782.56;5077369;27;20833;-67
2021/06/29 09:00:07;;;;;;;2.50;2.30;;;28.20;80.50;;;28.65;65.17;97765.41;5111399;27;20820;-66
2021/06/29 09:02:49;;;;;;;2.77;2.50;;;28.30;78.90;;;28.75;66.04;97768.44;5096481;27;20808;-67
2021/06/29 09:05:31;;;;;;;2.80;2.60;;;28.30;78.10;;;28.80;67.26;97768.56;5105957;27;20824;-68
2021/06/29 09:08:16;;;;;;;3.03;2.57;;;28.40;79.60;;;28.81;64.98;97746.06;5055804;27;21342;-67
2021/06/29 09:11:13;;;;;;;2.47;2.27;;;28.40;76.60;;;28.59;61.90;97748.34;5114140;27;20831;-67
2021/06/29 09:14:09;;;;;;;2.60;2.40;;;28.20;69.70;;;28.41;61.25;97738.66;5092928;27;20871;-67
2021/06/29 09:16:49;;;;;;;2.70;2.50;;;28.00;69.40;;;28.33;63.48;97729.03;5073497;27;20821;-67
2021/06/29 09:19:37;;;;;;;2.53;2.33;;;27.90;71.40;;;28.37;66.85;97732.09;5071554;28;20821;-67
2021/06/29 09:22:30;;;;;;;3.03;2.63;;;27.90;74.90;;;28.51;67.18;97734.41;5074057;27;21174;-68
2021/06/29 09:25:26;;;;;;;2.63;2.37;;;28.10;77.20;;;28.63;66.89;97732.63;5135788;27;20825;-67
2021/06/29 09:28:08;;;;;;;3.10;2.90;;;28.20;77.30;;;28.72;65.19;97736.66;5092220;27;21381;-68
2021/06/29 09:30:52;;;;;;;2.80;2.60;;;28.30;75.20;;;28.68;65.88;97735.47;5091314;27;20830;-67
2021/06/29 09:33:35;;;;;;;2.90;2.60;;;28.30;75.50;;;28.60;64.18;97725.00;5077144;27;20824;-67
2021/06/29 09:36:18;;;;;;;2.67;2.47;;;28.20;72.50;;;28.53;63.05;97724.25;5093320;27;20823;-69
2021/06/29 09:39:06;;;;;;;3.40;2.70;;;28.10;70.30;;;28.39;63.11;97730.03;5063627;27;20821;-67
2021/06/29 09:41:48;;;;;;;3.30;2.40;;;28.00;70.40;;;28.31;63.26;97727.63;5106416;27;21186;-68
2021/06/29 09:44:36;;;;;;;2.30;2.10;;;27.90;69.80;;;28.41;64.15;97720.69;5078657;27;20843;-68
2021/06/29 09:47:29;;;;;;;2.67;2.47;;;28.00;71.40;;;28.46;62.80;97714.63;5082756;27;20812;-68
2021/06/29 09:50:44;;;;;;;3.30;3.00;;;28.00;69.60;;;28.60;63.32;97719.63;5063000;27;20829;-68
2021/06/29 09:53:30;;;;;;;3.33;3.00;;;28.10;73.10;;;28.69;64.85;97715.63;5134991;27;20824;-68
2021/06/29 09:56:15;;;;;;;3.33;2.40;;;28.20;73.00;;;28.77;62.45;97708.06;5129083;27;20848;-67
2021/06/29 09:58:58;;;;;;;3.23;2.30;;;28.30;70.50;;;28.84;65.29;97695.38;5118725;27;20826;-68
2021/06/29 10:01:39;;;;;;;2.97;2.60;;;28.40;73.00;;;28.98;63.92;97700.31;5105217;27;20827;-68
2021/06/29 10:04:21;;;;;;;3.13;2.17;;;28.50;72.00;;;29.03;61.99;97692.41;5128376;27;20815;-67
2021/06/29 10:07:14;;;;;;;2.70;2.50;;;28.60;68.10;;;29.02;61.94;97685.38;5152687;27;21172;-67
2021/06/29 10:10:16;;;;;;;2.53;2.33;;;28.60;66.90;;;29.08;61.26;97673.72;5079286;27;20817;-69
2021/06/29 10:13:15;;;;;;;2.50;2.30;;;28.60;67.30;;;29.02;61.22;97676.50;5104166;27;21412;-69
2021/06/29 10:15:57;;;;;;;3.10;2.90;;;28.60;66.90;;;29.03;64.19;97668.22;5141196;27;20821;-68
2021/06/29 10:18:43;;;;;;;3.15;2.60;;;28.60;71.20;;;29.02;62.06;97661.19;5081861;27;20769;-69
2021/06/29 10:21:27;;;;;;;2.40;2.20;;;28.70;69.20;;;28.55;59.07;97655.03;5073566;27;20849;-67
2021/06/29 10:24:12;;;;;;;2.40;2.20;;;28.20;62.10;;;27.88;59.11;97649.03;5062429;27;20829;-68
2021/06/29 10:26:57;;;;;;;3.03;2.20;;;27.70;60.40;;;27.95;58.65;97652.47;5063166;27;20838;-69
2021/06/29 10:29:38;;;;;;;2.30;2.10;;;27.60;60.90;;;27.98;60.10;97643.13;5112705;27;20822;-68
2021/06/29 10:32:19;;;;;;;2.77;2.50;;;27.50;61.90;;;28.06;60.44;97644.47;5078991;27;20847;-67
2021/06/29 10:35:00;;;;;;;2.87;2.53;;;27.60;64.20;;;28.23;62.49;97639.34;5094697;27;20824;-64
2021/06/29 10:37:42;;;;;;;3.10;2.63;;;27.70;67.90;;;28.24;61.20;97639.13;5117934;27;20820;-67
2021/06/29 10:40:23;;;;;;;3.77;2.97;;;27.80;65.70;;;28.15;60.75;97632.44;5082388;27;20820;-69
2021/06/29 10:43:05;;;;;;;2.90;2.33;;;27.70;64.30;;;28.12;60.67;97630.19;5098160;27;20784;-69
2021/06/29 10:45:47;;;;;;;2.63;2.40;;;27.70;63.90;;;28.09;62.31;97627.97;5119371;27;20822;-68
2021/06/29 10:48:32;;;;;;;2.40;2.20;;;27.70;66.00;;;28.38;59.80;97627.19;5080302;27;20732;-68
2021/06/29 10:51:15;;;;;;;2.47;2.27;;;27.90;63.20;;;28.42;58.48;97623.00;5078544;27;20820;-67
2021/06/29 10:53:56;;;;;;;2.17;2.00;;;27.90;60.80;;;28.31;58.54;97620.25;5078880;27;20824;-68
2021/06/29 10:56:55;;;;;;;3.13;2.40;;;27.90;60.00;;;28.37;60.46;97616.66;5142799;27;20822;-68
2021/06/29 10:59:37;;;;;;;2.60;2.40;;;27.90;63.60;;;28.53;63.18;97609.59;5066185;28;20845;-69
2021/06/29 11:02:32;;;;;;;2.90;2.70;;;28.10;68.50;;;28.79;65.44;97605.75;5071462;27;21600;-68
2021/06/29 11:05:23;;;;;;;2.60;2.40;;;28.30;71.40;;;28.92;61.31;97613.63;5073456;27;21444;-68
2021/06/29 11:08:09;;;;;;;2.53;2.10;;;28.50;67.00;;;29.02;62.18;97618.19;5104706;27;20826;-68
2021/06/29 11:10:52;;;;;;;2.30;2.00;;;28.60;65.90;;;29.05;60.21;97609.66;5083687;27;20808;-68
2021/06/29 11:13:46;;;;;;;3.37;3.07;;;28.60;64.10;;;29.01;62.74;97610.38;5140708;27;20829;-68
2021/06/29 11:16:56;;;;;;;2.93;2.60;;;28.60;66.70;;;29.26;60.73;97609.16;5101697;27;20845;-68
2021/06/29 11:20:08;;;;;;;2.37;2.17;;;28.80;66.00;;;29.10;60.86;97609.78;5057186;27;20846;-68
2021/06/29 11:22:59;;;;;;;3.03;2.30;;;28.70;63.40;;;29.17;59.97;97596.25;5079308;27;20816;-70
2021/06/29 11:25:45;;;;;;;2.53;2.33;;;28.80;62.10;;;29.09;62.09;97599.25;5082290;27;20818;-69
2021/06/29 11:28:50;;;;;;;2.60;2.40;;;28.70;65.30;;;29.32;63.02;97604.69;5102779;27;21178;-69
2021/06/29 11:31:37;;;;;;;2.57;2.37;;;28.80;67.30;;;29.42;59.40;97597.69;5067614;27;20847;-68
2021/06/29 11:34:27;;;;;;;2.30;2.10;;;29.00;63.30;;;29.51;59.80;97589.03;5080864;28;20835;-68
2021/06/29 11:37:09;;;;;;;2.53;2.33;;;29.00;62.80;;;29.56;62.52;97583.78;5121111;27;20815;-67
2021/06/29 11:40:00;;;;;;;3.00;2.80;;;29.10;66.50;;;29.46;58.68;97578.16;5133424;27;20842;-68
2021/06/29 11:42:41;;;;;;;2.70;2.50;;;29.10;61.20;;;29.29;62.11;97579.09;5067542;27;20830;-67
2021/06/29 11:45:32;;;;;;;2.73;2.30;;;29.00;64.60;;;29.18;58.93;97573.69;5065210;27;20829;-68
2021/06/29 11:48:45;;;;;;;2.33;2.13;;;28.80;61.00;;;29.07;59.08;97580.69;5080679;27;20829;-68
2021/06/29 11:51:52;;;;;;;3.00;2.70;;;28.70;62.60;;;28.82;60.27;97555.09;5116175;27;20810;-67
2021/06/29 11:54:38;;;;;;;3.10;2.37;;;28.40;61.60;;;28.87;61.07;97567.81;5075398;27;20819;-67
2021/06/29 11:57:24;;;;;;;2.40;2.20;;;28.50;63.70;;;28.85;62.88;97564.53;5076772;28;20793;-68
2021/06/29 12:00:21;;;;;;;2.80;2.60;;;28.50;65.30;;;28.79;61.54;97560.94;5085003;27;20826;-68
2021/06/29 12:03:07;;;;;;;2.70;2.50;;;28.40;64.40;;;28.75;61.03;97561.63;5125468;27;20860;-66
2021/06/29 12:05:48;;;;;;;2.70;2.50;;;28.40;64.70;;;28.72;62.55;97560.19;5063412;27;20826;-67
2021/06/29 12:08:30;;;;;;;2.77;2.57;;;28.40;65.60;;;28.77;62.70;97554.13;5064868;28;21320;-66
2021/06/29 12:11:11;;;;;;;2.70;2.50;;;28.40;66.10;;;28.94;63.37;97553.22;5082747;27;21395;-68
2021/06/29 12:13:52;;;;;;;2.67;2.40;;;28.50;67.70;;;28.99;61.35;97546.09;5099359;27;20779;-67
2021/06/29 12:16:35;;;;;;;2.63;2.40;;;28.60;64.50;;;28.92;60.97;97541.88;5135969;27;20816;-67